createdAt,value
2022-10-09T00:02:19.678Z,5.4
2022-10-09T00:08:02.862Z,5.6
2022-10-09T00:13:02.937Z,5.2
2022-10-09T00:18:13.293Z,5.9
2022-10-09T00:24:02.834Z,5.7
2022-10-09T00:29:02.886Z,5.1
2022-10-09T00:34:02.848Z,5.2
2022-10-09T00:39:02.868Z,5.3
2022-10-09T00:44:02.910Z,5.2
2022-10-09T00:49:02.968Z,5
2022-10-09T00:54:13.145Z,5
2022-10-09T00:59:13.149Z,5.1
2022-10-09T01:04:13.178Z,4.9
2022-10-09T01:09:13.215Z,5
2022-10-09T01:15:02.902Z,5
2022-10-09T01:20:13.162Z,5
2022-10-09T01:25:13.195Z,4.7
2022-10-09T01:31:02.935Z,4.7
2022-10-09T01:36:02.905Z,4.8
2022-10-09T01:41:13.188Z,4.8
2022-10-09T01:47:02.840Z,4.7
2022-10-09T01:52:02.879Z,4.9
2022-10-09T01:57:02.981Z,5.2
2022-10-09T02:02:21.768Z,4.7
2022-10-09T02:08:02.856Z,4.8
2022-10-09T02:13:02.917Z,4.9
2022-10-09T02:18:13.119Z,4.8
2022-10-09T02:24:02.989Z,5
2022-10-09T02:29:02.894Z,4.8
2022-10-09T02:34:13.094Z,4.7
2022-10-09T02:40:06.980Z,4.7
2022-10-09T02:45:02.981Z,4.6
2022-10-09T02:50:13.149Z,4.4
2022-10-09T02:56:02.838Z,4.6
2022-10-09T03:01:02.862Z,4.8
2022-10-09T03:06:13.157Z,4.8
2022-10-09T03:12:02.869Z,4.6
2022-10-09T03:17:13.181Z,4.5
2022-10-09T03:23:02.895Z,4.5
2022-10-09T03:28:13.185Z,4.5
2022-10-09T03:34:02.850Z,4.4
2022-10-09T03:39:02.942Z,4.3
2022-10-09T03:44:13.129Z,4.5
2022-10-09T03:50:02.856Z,4.1
2022-10-09T03:55:13.165Z,4.2
2022-10-09T04:01:02.927Z,4.2
2022-10-09T04:06:13.125Z,4.1
2022-10-09T04:12:02.813Z,4.1
2022-10-09T04:17:13.186Z,4
2022-10-09T04:23:02.838Z,4.1
2022-10-09T04:28:13.215Z,4.3
2022-10-09T04:34:02.801Z,4.4
2022-10-09T04:39:13.065Z,4
2022-10-09T04:44:13.091Z,4.1
2022-10-09T04:50:02.789Z,4.2
2022-10-09T04:55:02.860Z,4.4
2022-10-09T05:00:02.938Z,4.4
2022-10-09T05:05:13.117Z,4.3
2022-10-09T05:11:03.039Z,4.7
2022-10-09T05:16:13.112Z,4.9
2022-10-09T05:21:13.124Z,5.1
2022-10-09T05:27:02.797Z,5
2022-10-09T05:32:13.142Z,5
2022-10-09T05:38:02.847Z,5.1
2022-10-09T05:43:13.055Z,5.2
2022-10-09T05:48:13.077Z,5
2022-10-09T05:54:02.799Z,5
2022-10-09T05:59:02.894Z,5.3
2022-10-09T06:04:02.873Z,5.2
2022-10-09T06:09:13.156Z,5.6
2022-10-09T06:15:02.757Z,5.4
2022-10-09T06:20:02.818Z,5.7
2022-10-09T06:25:03.212Z,6.2
2022-10-09T06:30:13.031Z,6.7
2022-10-09T06:35:13.082Z,6.8
2022-10-09T06:41:02.904Z,7.1
2022-10-09T06:46:13.332Z,7.2
2022-10-09T06:52:02.940Z,7.1
2022-10-09T06:57:13.177Z,7.5
2022-10-09T07:03:02.861Z,8
2022-10-09T07:08:02.829Z,8.1
2022-10-09T07:13:03.076Z,8.3
2022-10-09T07:18:13.077Z,8.7
2022-10-09T07:23:13.429Z,9
2022-10-09T07:28:21.662Z,9.3
2022-10-09T07:34:02.775Z,9.6
2022-10-09T07:39:02.801Z,9.8
2022-10-09T07:44:13.353Z,9.8
2022-10-09T07:49:13.131Z,10.1
2022-10-09T07:55:02.857Z,10.1
2022-10-09T08:00:02.900Z,10.3
2022-10-09T08:05:13.136Z,10.7
2022-10-09T08:11:02.782Z,10.8
2022-10-09T08:16:02.873Z,11
2022-10-09T08:21:02.836Z,11
2022-10-09T08:26:13.082Z,11.2
2022-10-09T08:32:02.939Z,11.6
2022-10-09T08:37:13.092Z,11.6
2022-10-09T08:43:02.851Z,11.7
2022-10-09T08:48:02.868Z,11.9
2022-10-09T08:53:03.067Z,12.2
2022-10-09T08:58:13.081Z,12.4
2022-10-09T09:04:03.027Z,12.6
2022-10-09T09:09:13.090Z,12.9
2022-10-09T09:14:13.096Z,13
2022-10-09T09:19:13.134Z,13.1
2022-10-09T09:25:02.787Z,13.4
2022-10-09T09:30:02.796Z,13.4
2022-10-09T09:35:13.114Z,13.6
2022-10-09T09:41:03.010Z,13.7
2022-10-09T09:46:13.471Z,14
2022-10-09T09:51:28.136Z,13.9
2022-10-09T09:57:21.958Z,13.9
2022-10-09T10:02:13.369Z,14.2
2022-10-09T10:07:13.338Z,14.4
2022-10-09T10:13:03.028Z,14.3
2022-10-09T10:18:13.309Z,14.6
2022-10-09T10:23:21.352Z,14.7
2022-10-09T10:29:02.997Z,14.8
2022-10-09T10:34:13.295Z,14.8
2022-10-09T10:39:13.332Z,14.8
2022-10-09T10:45:03.007Z,14.9
2022-10-09T10:50:22.319Z,15.1
2022-10-09T10:56:05.325Z,15.1
2022-10-09T11:01:13.197Z,15.1
2022-10-09T11:06:13.094Z,15.1
2022-10-09T11:12:02.856Z,15.2
2022-10-09T11:17:13.095Z,15.6
2022-10-09T11:23:02.795Z,15.6
2022-10-09T11:28:13.261Z,15.7
2022-10-09T11:34:02.796Z,15.7
2022-10-09T11:39:13.012Z,15.9
2022-10-09T11:44:13.123Z,15.8
2022-10-09T11:49:13.121Z,15.8
2022-10-09T11:55:02.793Z,16.1
2022-10-09T12:00:02.841Z,16.2
2022-10-09T12:05:13.105Z,16.4
2022-10-09T12:10:13.247Z,16.3
2022-10-09T12:16:03.045Z,16.2
2022-10-09T12:21:13.233Z,16.2
2022-10-09T12:26:13.310Z,16.1
2022-10-09T12:32:02.840Z,16.4
2022-10-09T12:37:02.982Z,16.4
2022-10-09T12:42:13.315Z,16.4
2022-10-09T12:48:02.801Z,16.4
2022-10-09T12:53:03.658Z,16.5
2022-10-09T12:58:13.028Z,16.5
2022-10-09T13:03:13.338Z,16.4
2022-10-09T13:09:03.007Z,16.4
2022-10-09T13:14:13.035Z,16.4
2022-10-09T13:19:13.163Z,16.6
2022-10-09T13:24:13.350Z,16.5
2022-10-09T13:29:13.332Z,16.4
2022-10-09T13:35:03.052Z,16.3
2022-10-09T13:40:03.014Z,16.3
2022-10-09T13:45:13.284Z,16.4
2022-10-09T13:50:13.968Z,16.4
2022-10-09T13:56:02.796Z,16.2
2022-10-09T14:01:02.924Z,16.1
2022-10-09T14:06:02.918Z,16.2
2022-10-09T14:11:03.000Z,16.2
2022-10-09T14:16:03.018Z,16.3
2022-10-09T14:21:15.295Z,16.1
2022-10-09T14:27:02.985Z,16.1
2022-10-09T14:32:03.010Z,16.1
2022-10-09T14:37:23.839Z,16.2
2022-10-09T14:43:02.785Z,16
2022-10-09T14:48:03.043Z,16
2022-10-09T14:53:13.356Z,15.9
2022-10-09T14:59:03.057Z,15.9
2022-10-09T15:04:13.344Z,15.8
2022-10-09T15:09:23.629Z,15.7
2022-10-09T15:15:03.015Z,15.7
2022-10-09T15:20:13.423Z,15.7
2022-10-09T15:26:03.037Z,15.7
2022-10-09T15:31:10.939Z,15.7
2022-10-09T15:36:13.104Z,15.4
2022-10-09T15:41:13.308Z,15.5
2022-10-09T15:46:13.312Z,15.3
2022-10-09T15:51:13.328Z,15.3
2022-10-09T15:57:03.030Z,15
2022-10-09T16:02:03.148Z,14.9
2022-10-09T16:07:13.318Z,14.9
2022-10-09T16:13:03.067Z,14.6
2022-10-09T16:18:13.314Z,14.5
2022-10-09T16:23:13.305Z,14.1
2022-10-09T16:28:13.416Z,13.7
2022-10-09T16:33:13.316Z,13.6
2022-10-09T16:38:13.323Z,13.5
2022-10-09T16:44:09.401Z,13.3
2022-10-09T16:49:13.295Z,12.9
2022-10-09T16:54:13.314Z,12.8
2022-10-09T17:00:03.017Z,12.5
2022-10-09T17:05:03.021Z,12.3
2022-10-09T17:10:03.119Z,12.1
2022-10-09T17:15:13.347Z,11.9
2022-10-09T17:20:13.388Z,11.7
2022-10-09T17:26:02.803Z,11.7
2022-10-09T17:31:02.896Z,11.7
2022-10-09T17:36:13.130Z,11.8
2022-10-09T17:42:02.877Z,11.9
2022-10-09T17:47:13.162Z,11.6
2022-10-09T17:52:13.165Z,11.8
2022-10-09T17:58:02.801Z,11.5
2022-10-09T18:03:02.862Z,11.6
2022-10-09T18:08:02.864Z,11.8
2022-10-09T18:13:02.885Z,11.7
2022-10-09T18:18:13.144Z,11.7
2022-10-09T18:24:02.887Z,11.8
2022-10-09T18:29:13.136Z,11.6
2022-10-09T18:34:13.322Z,11.5
2022-10-09T18:39:13.294Z,11.5
2022-10-09T18:44:21.550Z,11.5
2022-10-09T18:50:03.655Z,11.1
2022-10-09T18:55:13.214Z,11.1
2022-10-09T19:00:13.331Z,11
2022-10-09T19:05:13.343Z,11
2022-10-09T19:11:03.014Z,10.9
2022-10-09T19:16:03.044Z,10.9
2022-10-09T19:21:13.145Z,11
2022-10-09T19:27:02.866Z,11
2022-10-09T19:32:03.029Z,11.1
2022-10-09T19:37:13.084Z,10.9
2022-10-09T19:42:13.383Z,10.8
2022-10-09T19:48:03.805Z,10.8
2022-10-09T19:53:13.140Z,11
2022-10-09T19:58:13.145Z,11.1
2022-10-09T20:04:03.099Z,10.9
2022-10-09T20:09:13.359Z,11
2022-10-09T20:15:03.058Z,11
2022-10-09T20:20:03.122Z,10.9
2022-10-09T20:25:13.383Z,10.9
2022-10-09T20:30:13.307Z,11.1
2022-10-09T20:36:03.085Z,10.8
2022-10-09T20:41:13.330Z,10.8
2022-10-09T20:46:13.375Z,10.7
2022-10-09T20:52:03.059Z,10.6
2022-10-09T20:57:13.347Z,10.6
2022-10-09T21:03:03.014Z,10.7
2022-10-09T21:08:03.034Z,10.6
2022-10-09T21:13:03.061Z,10.6
2022-10-09T21:18:13.338Z,10.6
2022-10-09T21:24:03.022Z,10.8
2022-10-09T21:29:03.064Z,10.7
2022-10-09T21:34:13.338Z,10.9
2022-10-09T21:40:03.023Z,10.8
2022-10-09T21:45:13.319Z,10.8
2022-10-09T21:50:13.338Z,10.6
2022-10-09T21:55:13.376Z,10.7
2022-10-09T22:01:03.141Z,10.7
2022-10-09T22:06:03.067Z,10.6
2022-10-09T22:11:13.107Z,10.6
2022-10-09T22:16:13.406Z,10.6
2022-10-09T22:22:02.812Z,10.6
2022-10-09T22:27:02.826Z,10.4
2022-10-09T22:32:03.024Z,10.2
2022-10-09T22:37:03.015Z,10.4
2022-10-09T22:42:13.312Z,10.4
2022-10-09T22:47:13.340Z,10.3
2022-10-09T22:53:02.753Z,10
2022-10-09T22:58:02.821Z,10.2
2022-10-09T23:03:03.023Z,10.1
2022-10-09T23:08:03.022Z,10.2
2022-10-09T23:13:13.034Z,10.2
2022-10-09T23:18:13.348Z,10.3
2022-10-09T23:24:02.807Z,10.2
2022-10-09T23:29:02.838Z,10.3
2022-10-09T23:34:13.103Z,10.3
2022-10-09T23:39:13.165Z,10
2022-10-09T23:45:02.783Z,9.8
2022-10-09T23:50:02.962Z,9.6
2022-10-09T23:55:13.084Z,9.5
